Time;durP1;ratioP1;P1;durP2;ratioP2;P2;SDS_P1;SDS_P2;PMS_P1;PMS_P2;Temp;Humidity;BMP_temperature;BMP_pressure;BME280_temperature;BME280_humidity;BME280_pressure;Samples;Min_cycle;Max_cycle;Signal;HPM_P1;HPM_P2
2021/12/16 00:02:25;;;;;;;;;47.00;38.25;;;;;9.84;83.29;102636.38;5098962;27;45262;-63
2021/12/16 00:07:41;;;;;;;;;48.25;39.25;;;;;9.91;83.14;102650.38;5098935;27;45371;-59
2021/12/16 00:10:32;;;;;;;;;49.75;39.00;;;;;9.90;83.25;102649.50;5101193;27;45381;-62
2021/12/16 00:32:04;;;;;;;;;48.25;35.25;;;;;9.90;83.42;102652.13;5112542;27;45251;-59
2021/12/16 00:34:31;;;;;;;;;48.75;40.25;;;;;9.93;83.40;102649.47;5099763;27;46037;-58
2021/12/16 00:36:58;;;;;;;;;44.75;37.50;;;;;9.98;82.98;102652.09;5101236;27;45179;-64
2021/12/16 00:39:35;;;;;;;;;46.25;37.75;;;;;9.97;83.28;102655.63;5099165;27;45305;-64
2021/12/16 00:42:08;;;;;;;;;48.50;36.25;;;;;9.95;82.77;102649.50;5098755;27;45305;-67
2021/12/16 00:49:38;;;;;;;;;43.25;33.50;;;;;9.99;82.68;102639.81;5098389;27;45218;-56
2021/12/16 00:57:51;;;;;;;;;41.25;34.50;;;;;10.08;82.60;102640.66;5097522;27;45389;-59
2021/12/16 01:00:17;;;;;;;;;38.50;32.00;;;;;10.08;82.25;102640.66;5098386;27;45301;-60
2021/12/16 01:03:01;;;;;;;;;42.00;33.00;;;;;10.08;82.47;102640.66;5099418;27;45759;-57
2021/12/16 01:09:08;;;;;;;;;39.75;33.25;;;;;10.11;82.02;102644.16;5098661;27;45483;-58
2021/12/16 01:46:45;;;;;;;;;33.50;30.00;;;;;10.15;81.06;102649.41;5097461;27;45328;-60
2021/12/16 01:52:37;;;;;;;;;36.25;32.00;;;;;10.17;81.11;102652.91;5087902;27;45398;-61
2021/12/16 01:55:08;;;;;;;;;37.25;31.75;;;;;10.17;81.12;102649.38;5099761;27;45185;-61
2021/12/16 01:57:43;;;;;;;;;36.75;31.25;;;;;10.16;80.66;102650.25;5097401;27;45316;-62
2021/12/16 02:00:15;;;;;;;;;34.50;30.00;;;;;10.19;80.99;102648.50;5096769;27;46049;-62
2021/12/16 02:05:30;;;;;;;;;34.00;28.50;;;;;10.21;81.09;102654.63;5097669;27;45384;-63
2021/12/16 02:10:36;;;;;;;;;40.25;33.75;;;;;10.20;80.30;102660.78;5097473;27;45443;-63
2021/12/16 02:35:25;;;;;;;;;37.50;31.25;;;;;10.21;80.19;102653.75;5098627;27;45425;-61
2021/12/16 02:37:47;;;;;;;;;34.25;30.25;;;;;10.20;80.67;102654.63;5101326;27;45369;-62
2021/12/16 02:40:15;;;;;;;;;35.50;32.00;;;;;10.20;80.53;102659.88;5105946;27;45503;-64
2021/12/16 02:42:55;;;;;;;;;35.00;31.25;;;;;10.18;80.77;102657.28;5097861;27;46546;-63
2021/12/16 02:50:51;;;;;;;;;35.00;29.75;;;;;10.26;80.02;102659.84;5096222;27;45320;-63
2021/12/16 02:53:17;;;;;;;;;41.75;33.00;;;;;10.25;80.56;102666.00;5097100;27;45313;-58
2021/12/16 02:55:42;;;;;;;;;37.75;30.50;;;;;10.25;80.94;102654.63;5096519;27;45675;-61
2021/12/16 02:58:08;;;;;;;;;39.75;33.00;;;;;10.26;80.87;102657.22;5095821;27;45391;-62
2021/12/16 03:00:39;;;;;;;;;39.75;31.50;;;;;10.28;81.00;102659.84;5095720;27;45323;-60
2021/12/16 03:03:04;;;;;;;;;33.75;31.25;;;;;10.25;80.77;102655.47;5111373;27;46055;-60
2021/12/16 03:05:30;;;;;;;;;38.00;33.00;;;;;10.26;80.53;102665.13;5096433;27;45361;-63
2021/12/16 03:07:55;;;;;;;;;38.00;30.00;;;;;10.19;80.48;102655.50;5096224;27;45314;-62
2021/12/16 03:13:04;;;;;;;;;41.25;33.75;;;;;10.19;80.97;102661.66;5095367;27;45922;-59
2021/12/16 03:18:48;;;;;;;;;46.75;36.00;;;;;10.08;81.03;102663.47;5099214;27;45282;-62
2021/12/16 03:21:17;;;;;;;;;39.50;35.25;;;;;10.04;81.09;102665.22;5098219;27;45527;-61
2021/12/16 03:23:59;;;;;;;;;45.75;35.25;;;;;10.00;81.02;102660.84;5118311;27;47072;-62
2021/12/16 03:29:06;;;;;;;;;41.75;34.25;;;;;10.00;81.83;102666.13;5103101;27;45332;-63
2021/12/16 03:37:22;;;;;;;;;48.50;37.75;;;;;9.98;81.69;102657.38;5087910;27;45291;-63
2021/12/16 03:39:52;;;;;;;;;50.00;40.00;;;;;9.94;81.88;102672.25;5115181;27;45382;-63
2021/12/16 03:42:26;;;;;;;;;50.50;40.25;;;;;9.90;81.85;102669.66;5098976;27;45506;-63
2021/12/16 03:44:59;;;;;;;;;51.75;39.25;;;;;9.85;82.28;102666.19;5098667;27;46137;-61
2021/12/16 03:47:33;;;;;;;;;53.25;42.75;;;;;9.78;82.49;102660.94;5098853;27;45374;-62
2021/12/16 03:50:00;;;;;;;;;50.25;38.00;;;;;9.72;82.79;102654.81;5114847;27;45422;-59
2021/12/16 03:52:26;;;;;;;;;48.50;36.00;;;;;9.72;82.82;102658.34;5099705;27;45322;-62
2021/12/16 03:54:55;;;;;;;;;47.00;37.75;;;;;9.71;82.65;102660.97;5098879;27;46021;-61
2021/12/16 03:57:23;;;;;;;;;64.50;50.00;;;;;9.68;83.56;102664.50;5098360;27;45285;-63
2021/12/16 03:59:49;;;;;;;;;61.75;45.00;;;;;9.68;83.15;102667.13;5098968;27;45317;-63
2021/12/16 04:02:32;;;;;;;;;54.75;43.00;;;;;9.67;83.27;102662.75;5099139;27;45599;-62
2021/12/16 04:04:59;;;;;;;;;53.00;40.75;;;;;9.64;83.24;102657.50;5098316;27;46396;-59
2021/12/16 04:07:28;;;;;;;;;51.00;40.25;;;;;9.64;83.68;102660.97;5098405;27;45292;-64
2021/12/16 04:09:54;;;;;;;;;56.00;43.50;;;;;9.67;83.52;102662.75;5101654;27;45297;-64
2021/12/16 04:12:23;;;;;;;;;49.00;39.00;;;;;9.69;83.96;102667.97;5098703;27;45375;-64
2021/12/16 04:14:54;;;;;;;;;51.75;40.50;;;;;9.68;83.14;102663.59;5098459;27;46317;-62
2021/12/16 04:17:25;;;;;;;;;50.00;40.00;;;;;9.69;83.30;102668.88;5099057;27;45389;-64
2021/12/16 04:19:50;;;;;;;;;45.50;38.00;;;;;9.66;83.55;102674.13;5098630;27;45273;-60
2021/12/16 04:22:28;;;;;;;;;48.00;39.00;;;;;9.60;83.32;102661.88;5098695;27;45207;-62
2021/12/16 04:24:55;;;;;;;;;47.75;38.25;;;;;9.70;83.66;102667.09;5113658;27;47739;-63
2021/12/16 04:27:21;;;;;;;;;47.00;39.00;;;;;9.72;83.55;102665.34;5097427;27;45339;-59
2021/12/16 04:29:47;;;;;;;;;50.25;38.50;;;;;9.73;83.43;102670.59;5097177;27;45437;-64
2021/12/16 04:32:13;;;;;;;;;45.75;36.75;;;;;9.73;83.26;102665.34;5099763;27;45440;-65
2021/12/16 04:34:39;;;;;;;;;43.50;35.25;;;;;9.76;82.82;102674.97;5098534;27;45544;-68
2021/12/16 04:37:05;;;;;;;;;45.75;37.50;;;;;9.74;83.29;102674.97;5100649;27;45255;-67
2021/12/16 04:39:33;;;;;;;;;44.75;37.25;;;;;9.77;83.31;102677.59;5101269;27;45275;-66
2021/12/16 04:41:59;;;;;;;;;45.00;34.75;;;;;9.81;82.82;102675.81;5102095;27;45246;-65
2021/12/16 04:44:27;;;;;;;;;38.00;34.50;;;;;9.85;82.96;102681.97;5100682;27;45571;-64
2021/12/16 04:46:55;;;;;;;;;44.75;36.00;;;;;9.91;83.15;102680.16;5098821;27;45410;-64
2021/12/16 04:49:21;;;;;;;;;41.25;35.25;;;;;9.92;82.45;102678.44;5098937;27;45254;-63
2021/12/16 04:51:50;;;;;;;;;47.75;39.50;;;;;10.00;82.78;102676.63;5100271;27;45463;-62
2021/12/16 04:54:19;;;;;;;;;43.75;35.50;;;;;10.04;82.73;102680.09;5100800;27;46114;-60
2021/12/16 04:56:46;;;;;;;;;46.75;36.25;;;;;10.09;82.50;102683.63;5101125;27;45308;-62
2021/12/16 04:59:15;;;;;;;;;38.25;32.25;;;;;10.13;82.09;102688.00;5100965;27;45201;-58
2021/12/16 05:01:45;;;;;;;;;44.50;35.75;;;;;10.15;81.49;102682.72;5102469;27;45550;-61
2021/12/16 05:04:11;;;;;;;;;44.75;32.25;;;;;10.17;81.92;102683.56;5100859;27;46123;-61
2021/12/16 05:06:36;;;;;;;;;34.25;30.25;;;;;10.21;81.21;102691.47;5100977;27;45376;-63
2021/12/16 05:09:05;;;;;;;;;37.00;31.00;;;;;10.25;81.43;102681.78;5098262;27;45317;-65
2021/12/16 05:11:33;;;;;;;;;31.75;30.00;;;;;10.29;80.69;102686.13;5114173;27;45464;-63
2021/12/16 05:13:59;;;;;;;;;30.25;28.00;;;;;10.32;81.34;102688.75;5098872;27;46188;-63
2021/12/16 05:16:25;;;;;;;;;31.75;30.50;;;;;10.35;81.00;102694.00;5098671;27;45384;-64
2021/12/16 05:18:53;;;;;;;;;45.50;35.50;;;;;10.36;80.88;102690.47;5099463;27;45348;-62
2021/12/16 05:26:48;;;;;;;;;44.25;36.50;;;;;10.37;80.63;102700.13;5099316;27;45373;-61
2021/12/16 05:29:14;;;;;;;;;44.50;37.25;;;;;10.36;80.81;102703.63;5097689;27;45308;-63
2021/12/16 05:31:39;;;;;;;;;52.25;39.50;;;;;10.33;81.01;102702.78;5097854;27;45522;-67
2021/12/16 05:34:06;;;;;;;;;48.75;38.75;;;;;10.29;81.00;102703.69;5097348;27;47083;-66
2021/12/16 05:36:33;;;;;;;;;54.00;42.00;;;;;10.28;81.39;102708.06;5098400;27;45471;-62
2021/12/16 05:38:59;;;;;;;;;49.25;40.25;;;;;10.24;81.85;102703.69;5096762;27;45291;-63
2021/12/16 05:41:24;;;;;;;;;51.50;40.25;;;;;10.19;81.76;102701.09;5098334;27;45460;-64
2021/12/16 05:43:51;;;;;;;;;48.00;39.75;;;;;10.12;81.58;102714.28;5097066;27;46569;-65
2021/12/16 05:46:19;;;;;;;;;50.00;41.75;;;;;10.03;82.08;102721.31;5112573;27;45402;-62
2021/12/16 05:48:47;;;;;;;;;49.50;40.00;;;;;9.94;82.31;102716.94;5096660;27;45351;-66
2021/12/16 05:51:21;;;;;;;;;50.25;40.75;;;;;9.90;82.75;102720.47;5097480;27;45306;-64
2021/12/16 05:53:50;;;;;;;;;49.25;40.00;;;;;9.88;83.08;102719.59;5097180;27;47276;-60
2021/12/16 05:56:16;;;;;;;;;50.25;40.00;;;;;9.85;83.16;102724.88;5096710;27;45290;-64
2021/12/16 05:58:43;;;;;;;;;52.75;41.25;;;;;9.81;83.25;102719.66;5097157;27;45375;-62
2021/12/16 06:01:15;;;;;;;;;50.25;40.25;;;;;9.75;83.64;102717.88;5097342;27;45603;-66
2021/12/16 06:03:42;;;;;;;;;58.75;46.00;;;;;9.80;83.46;102729.25;5098155;27;45288;-63
2021/12/16 06:06:08;;;;;;;;;63.25;49.75;;;;;9.84;83.53;102735.41;5098065;27;45372;-66
2021/12/16 06:08:34;;;;;;;;;51.00;41.25;;;;;9.86;83.82;102738.91;5115478;27;45365;-65
2021/12/16 06:13:44;;;;;;;;;49.50;40.50;;;;;9.78;83.62;102737.16;5096632;27;46195;-65
2021/12/16 06:27:13;;;;;;;;;48.25;38.50;;;;;9.75;84.23;102734.56;5099833;27;45479;-66
2021/12/16 06:29:45;;;;;;;;;49.25;39.50;;;;;9.70;83.75;102731.06;5099803;27;45336;-61
2021/12/16 06:32:11;;;;;;;;;49.25;39.00;;;;;9.69;83.92;102724.06;5099209;27;45302;-61
2021/12/16 06:34:38;;;;;;;;;49.75;38.00;;;;;9.70;84.29;102741.56;5097634;27;46094;-62
2021/12/16 06:37:04;;;;;;;;;49.00;41.00;;;;;9.65;84.36;102736.31;5096391;27;45364;-59
2021/12/16 06:39:31;;;;;;;;;49.00;40.25;;;;;9.66;84.52;102737.19;5097613;27;45326;-61
2021/12/16 06:41:56;;;;;;;;;50.00;39.75;;;;;9.68;84.55;102735.44;5099555;27;45479;-62
2021/12/16 06:44:27;;;;;;;;;46.25;37.00;;;;;9.69;84.59;102738.94;5097866;27;45564;-63
2021/12/16 06:46:59;;;;;;;;;45.75;37.25;;;;;9.68;84.27;102740.69;5096622;27;45275;-64
2021/12/16 06:49:25;;;;;;;;;47.25;38.50;;;;;9.63;84.52;102734.56;5095907;27;45363;-64
2021/12/16 06:51:56;;;;;;;;;48.00;39.00;;;;;9.68;84.84;102742.44;5099086;27;45343;-63
2021/12/16 06:54:29;;;;;;;;;47.00;39.00;;;;;9.69;84.31;102739.81;5099998;27;46225;-64
2021/12/16 06:57:22;;;;;;;;;46.75;39.00;;;;;9.68;84.50;102748.59;5114743;27;45342;-65
2021/12/16 06:59:55;;;;;;;;;42.75;36.00;;;;;9.67;84.64;102740.69;5098882;27;45381;-66
2021/12/16 07:02:46;;;;;;;;;48.00;38.00;;;;;9.63;84.93;102737.19;5099017;27;45309;-62
2021/12/16 07:05:13;;;;;;;;;55.25;41.00;;;;;9.73;84.33;102749.44;5099142;27;46070;-58
2021/12/16 07:07:39;;;;;;;;;43.75;37.75;;;;;9.70;84.61;102748.56;5099992;27;45610;-61
2021/12/16 07:10:07;;;;;;;;;44.25;36.75;;;;;9.80;84.78;102752.91;5099279;27;45275;-62
2021/12/16 07:12:37;;;;;;;;;45.75;37.00;;;;;9.80;84.47;102760.81;5101772;27;45579;-65
2021/12/16 07:15:09;;;;;;;;;45.50;36.00;;;;;9.82;84.66;102751.16;5099322;27;46040;-58
2021/12/16 07:17:35;;;;;;;;;44.75;35.25;;;;;9.87;84.50;102761.69;5098712;27;45261;-60
2021/12/16 07:20:00;;;;;;;;;50.00;39.00;;;;;9.84;84.71;102759.06;5099608;27;45350;-64
2021/12/16 07:22:26;;;;;;;;;47.50;38.25;;;;;9.86;84.50;102762.56;5101073;27;45239;-59
2021/12/16 07:24:52;;;;;;;;;46.75;38.50;;;;;9.88;84.61;102761.66;5100717;27;46162;-59
2021/12/16 07:27:17;;;;;;;;;49.25;39.00;;;;;9.86;84.25;102757.31;5101045;27;45362;-60
2021/12/16 07:29:42;;;;;;;;;47.00;37.75;;;;;9.94;84.36;102753.75;5102625;27;45332;-65
2021/12/16 07:32:08;;;;;;;;;48.25;38.75;;;;;9.99;84.45;102761.66;5099978;27;45243;-63
2021/12/16 07:34:34;;;;;;;;;47.50;39.50;;;;;10.01;84.20;102761.63;5098459;27;46542;-59
2021/12/16 07:37:04;;;;;;;;;47.75;37.50;;;;;10.02;84.07;102768.63;5098664;27;45211;-65
2021/12/16 07:39:37;;;;;;;;;50.50;39.50;;;;;10.02;84.68;102769.53;5098691;27;45274;-60
2021/12/16 07:42:05;;;;;;;;;47.75;39.50;;;;;10.08;84.13;102766.88;5098128;27;45694;-61
2021/12/16 07:44:32;;;;;;;;;48.75;40.00;;;;;10.07;84.12;102764.25;5098397;27;45369;-60
2021/12/16 07:47:01;;;;;;;;;48.75;38.25;;;;;10.07;84.43;102770.38;5099395;27;45447;-66
2021/12/16 07:49:30;;;;;;;;;48.50;40.25;;;;;10.07;83.70;102766.88;5099126;27;45451;-60
2021/12/16 07:52:01;;;;;;;;;48.50;39.50;;;;;10.09;84.09;102779.16;5098614;27;45638;-62
2021/12/16 07:54:27;;;;;;;;;50.50;39.50;;;;;10.14;84.32;102770.38;5098267;27;46360;-64
2021/12/16 07:56:55;;;;;;;;;49.75;38.50;;;;;10.14;83.83;102771.25;5098319;27;45451;-63
2021/12/16 07:59:23;;;;;;;;;52.00;42.75;;;;;10.14;84.23;102771.25;5101201;27;45482;-59
2021/12/16 08:01:49;;;;;;;;;53.00;41.75;;;;;10.16;83.78;102777.41;5097512;27;45625;-61
2021/12/16 08:04:23;;;;;;;;;53.50;42.00;;;;;10.18;84.05;102777.38;5097830;27;46007;-65
2021/12/16 08:06:51;;;;;;;;;51.25;42.00;;;;;10.16;84.09;102772.13;5113798;27;45273;-65
2021/12/16 08:09:17;;;;;;;;;52.00;41.00;;;;;10.23;84.27;102779.13;5098810;27;45330;-65
2021/12/16 08:11:43;;;;;;;;;47.25;40.00;;;;;10.11;84.01;102757.22;5098507;27;45329;-63
2021/12/16 08:14:10;;;;;;;;;49.25;40.00;;;;;10.32;83.72;102790.50;5098034;27;45487;-63
2021/12/16 08:16:37;;;;;;;;;46.75;39.00;;;;;10.36;83.94;102790.47;5098257;27;45361;-65
2021/12/16 08:19:05;;;;;;;;;44.00;36.50;;;;;10.40;83.19;102791.38;5098361;27;45451;-56
2021/12/16 08:21:31;;;;;;;;;49.25;38.75;;;;;10.40;83.10;102791.38;5114109;27;45609;-62
2021/12/16 08:23:58;;;;;;;;;49.50;40.25;;;;;10.41;83.19;102787.84;5097801;27;46482;-56
2021/12/16 08:26:24;;;;;;;;;49.25;40.25;;;;;10.27;82.72;102758.94;5097522;27;45373;-60
2021/12/16 08:28:49;;;;;;;;;48.25;37.75;;;;;10.43;83.14;102795.72;5097859;27;45329;-64
2021/12/16 08:31:15;;;;;;;;;48.75;39.50;;;;;10.41;82.84;102798.38;5098074;27;45463;-65
2021/12/16 08:33:41;;;;;;;;;45.00;35.75;;;;;10.44;83.44;102787.84;5098074;27;46125;-60
2021/12/16 08:36:08;;;;;;;;;50.25;39.25;;;;;10.46;83.31;102796.59;5097847;27;45172;-65
2021/12/16 08:38:36;;;;;;;;;52.75;42.50;;;;;10.50;82.58;102798.34;5098510;27;45243;-63
2021/12/16 08:41:08;;;;;;;;;46.50;38.75;;;;;10.52;83.29;102793.94;5114016;27;45625;-64
2021/12/16 08:43:40;;;;;;;;;53.25;39.75;;;;;10.58;82.98;102800.91;5099206;27;47237;-65
2021/12/16 08:46:07;;;;;;;;;50.50;40.00;;;;;10.60;82.30;102796.56;5099887;27;45330;-62
2021/12/16 08:48:34;;;;;;;;;45.00;38.25;;;;;10.62;81.83;102807.94;5098555;27;45357;-61
2021/12/16 08:51:00;;;;;;;;;49.00;39.50;;;;;10.60;81.87;102809.72;5097875;27;45418;-62
2021/12/16 08:53:25;;;;;;;;;47.25;37.75;;;;;10.60;81.89;102809.72;5087124;27;45499;-64
2021/12/16 08:55:54;;;;;;;;;48.75;37.75;;;;;10.64;81.60;102819.34;5075844;27;45398;-69
2021/12/16 08:58:20;;;;;;;;;47.00;38.50;;;;;10.67;81.45;102815.81;5077275;27;45394;-73
2021/12/16 09:01:03;;;;;;;;;42.25;34.50;;;;;10.72;81.78;102807.91;5076686;27;45659;-61
2021/12/16 09:03:30;;;;;;;;;51.50;39.75;;;;;10.77;81.53;102801.72;5073399;28;45523;-69
2021/12/16 09:05:56;;;;;;;;;42.75;33.75;;;;;10.78;80.53;102805.25;5076485;27;45303;-77
2021/12/16 09:08:21;;;;;;;;;39.75;34.75;;;;;10.86;80.99;102811.34;5077307;27;45374;-64
2021/12/16 09:10:47;;;;;;;;;50.50;37.50;;;;;10.92;80.24;102820.94;5076978;27;45499;-69
2021/12/16 09:13:15;;;;;;;;;42.00;33.25;;;;;10.94;79.46;102819.16;5072931;27;45414;-64
2021/12/16 09:15:51;;;;;;;;;42.50;35.00;;;;;10.94;79.82;102813.91;5073836;27;45514;-64
2021/12/16 09:18:19;;;;;;;;;41.75;36.25;;;;;10.92;79.58;102816.56;5075086;27;45439;-59
2021/12/16 09:20:44;;;;;;;;;47.25;37.25;;;;;11.01;79.91;102814.75;5086017;27;45511;-59
2021/12/16 09:23:12;;;;;;;;;43.50;35.75;;;;;11.06;79.97;102831.41;5087773;27;45997;-63
2021/12/16 09:25:40;;;;;;;;;55.00;42.25;;;;;11.06;79.70;102826.13;5078398;27;45393;-67
2021/12/16 09:28:06;;;;;;;;;46.00;38.00;;;;;11.09;79.23;102826.97;5080701;27;45476;-63
2021/12/16 09:30:34;;;;;;;;;41.50;33.25;;;;;11.09;78.66;102832.25;5083231;27;45448;-67
2021/12/16 09:33:02;;;;;;;;;44.25;35.75;;;;;11.06;79.35;102840.16;5087191;27;46712;-69
2021/12/16 09:35:30;;;;;;;;;45.50;37.50;;;;;11.10;79.22;102835.78;5090717;27;45449;-70
2021/12/16 09:37:56;;;;;;;;;51.00;40.75;;;;;11.08;79.04;102833.13;5089713;27;45496;-65
2021/12/16 09:40:24;;;;;;;;;47.50;39.50;;;;;11.07;79.21;102841.91;5087922;27;45395;-65
2021/12/16 09:42:51;;;;;;;;;48.50;37.00;;;;;11.04;79.22;102841.94;5086611;27;45563;-66
2021/12/16 09:45:18;;;;;;;;;43.25;35.25;;;;;11.10;79.15;102846.31;5092609;27;45386;-68
2021/12/16 09:47:44;;;;;;;;;46.75;38.00;;;;;11.09;78.83;102844.56;5093269;27;45298;-68
2021/12/16 09:50:16;;;;;;;;;55.75;41.00;;;;;11.13;79.59;102856.81;5082091;27;45624;-70
2021/12/16 09:52:42;;;;;;;;;53.25;42.75;;;;;11.15;78.70;102855.06;5095656;27;45369;-63
2021/12/16 09:55:09;;;;;;;;;53.75;41.75;;;;;11.15;79.25;102857.69;5084487;27;45249;-63
2021/12/16 09:57:35;;;;;;;;;39.50;34.25;;;;;11.16;78.45;102863.84;5077209;27;45361;-62
2021/12/16 10:00:01;;;;;;;;;49.00;39.75;;;;;11.12;78.03;102857.72;5094098;27;45422;-61
2021/12/16 10:02:28;;;;;;;;;57.25;43.75;;;;;11.11;79.10;102855.97;5080927;27;47296;-65
2021/12/16 10:04:53;;;;;;;;;51.25;42.00;;;;;11.17;78.61;102858.56;5085272;27;45474;-63
2021/12/16 10:07:22;;;;;;;;;56.00;44.25;;;;;11.20;78.37;102855.03;5087971;27;45427;-62
2021/12/16 10:09:50;;;;;;;;;57.50;44.25;;;;;11.20;78.78;102861.16;5092805;27;45597;-64
2021/12/16 10:12:24;;;;;;;;;52.75;40.75;;;;;11.23;78.26;102853.25;5078486;27;46120;-70
2021/12/16 10:17:26;;;;;;;;;56.25;46.25;;;;;11.35;79.00;102865.47;5093388;27;45405;-62
2021/12/16 10:19:57;;;;;;;;;48.00;39.50;;;;;11.44;78.71;102868.94;5078209;27;45353;-65
2021/12/16 10:22:31;;;;;;;;;57.75;44.00;;;;;11.51;77.79;102863.59;5081076;27;47289;-63
2021/12/16 10:25:23;;;;;;;;;52.50;40.50;;;;;11.60;78.41;102862.66;5081417;27;45622;-64
2021/12/16 10:28:10;;;;;;;;;50.50;41.50;;;;;11.71;77.54;102864.31;5079537;27;45518;-63
2021/12/16 10:30:50;;;;;;;;;67.75;50.50;;;;;11.77;77.44;102859.88;5084633;27;45208;-61
2021/12/16 10:33:19;;;;;;;;;54.75;43.75;;;;;11.88;76.74;102861.56;5081435;27;45518;-62
2021/12/16 10:35:47;;;;;;;;;49.50;41.50;;;;;11.85;76.15;102862.44;5081632;27;45465;-60
2021/12/16 10:38:17;;;;;;;;;51.00;41.00;;;;;11.83;75.63;102854.56;5086728;27;46120;-65
2021/12/16 10:40:50;;;;;;;;;51.25;41.25;;;;;11.89;76.22;102863.31;5082358;27;45623;-64
2021/12/16 10:43:29;;;;;;;;;52.50;41.00;;;;;11.91;75.64;102856.25;5083118;27;46059;-60
2021/12/16 10:46:19;;;;;;;;;51.75;41.00;;;;;11.90;75.61;102858.00;5089861;27;45383;-66
2021/12/16 10:48:49;;;;;;;;;52.25;42.00;;;;;11.87;74.78;102860.66;5101375;27;45497;-74
2021/12/16 10:51:31;;;;;;;;;49.00;40.75;;;;;11.69;75.10;102836.22;5077454;28;45432;-70
2021/12/16 10:54:06;;;;;;;;;54.25;42.00;;;;;11.84;75.38;102858.94;5096106;27;46266;-67
2021/12/16 10:56:54;;;;;;;;;57.00;45.00;;;;;11.86;75.48;102860.69;5087901;27;45531;-64
2021/12/16 10:59:30;;;;;;;;;51.25;42.00;;;;;11.84;74.45;102858.94;5078400;27;45441;-69
2021/12/16 11:02:01;;;;;;;;;53.50;42.75;;;;;11.82;75.18;102859.84;5080056;27;45358;-69
2021/12/16 11:04:32;;;;;;;;;49.75;39.50;;;;;11.82;75.41;102858.09;5079817;28;47123;-68
2021/12/16 11:07:17;;;;;;;;;52.00;40.75;;;;;11.86;75.11;102853.63;5071887;27;45481;-64
2021/12/16 11:09:47;;;;;;;;;52.50;42.00;;;;;11.94;74.92;102857.09;5069337;28;45243;-68
2021/12/16 11:12:30;;;;;;;;;39.50;35.25;;;;;11.94;74.57;102858.84;5056036;27;45471;-64
2021/12/16 11:15:07;;;;;;;;;48.75;40.75;;;;;11.94;74.77;102856.22;5075285;27;45504;-63
2021/12/16 11:17:40;;;;;;;;;52.25;43.00;;;;;12.01;74.52;102868.50;5092110;27;44906;-67
2021/12/16 11:20:21;;;;;;;;;48.75;38.50;;;;;12.04;74.39;102862.28;5082003;27;45425;-72
2021/12/16 11:22:49;;;;;;;;;42.50;37.25;;;;;12.04;74.20;102855.28;5087406;27;45389;-72
2021/12/16 11:25:20;;;;;;;;;49.75;37.50;;;;;12.08;74.71;102866.66;5076176;27;46300;-72
2021/12/16 11:27:52;;;;;;;;;50.00;39.25;;;;;12.07;73.83;102859.63;5079156;27;45346;-73
2021/12/16 11:30:32;;;;;;;;;51.25;41.50;;;;;12.10;74.23;102859.59;5084529;27;45539;-67
2021/12/16 11:33:11;;;;;;;;;53.25;44.25;;;;;12.16;73.93;102866.59;5089136;27;45507;-65
2021/12/16 11:35:44;;;;;;;;;62.50;50.00;;;;;12.17;74.17;102863.91;5090975;27;46306;-72
2021/12/16 11:38:20;;;;;;;;;63.25;49.00;;;;;12.22;73.95;102864.78;5095842;27;45789;-68
2021/12/16 11:41:02;;;;;;;;;56.00;46.50;;;;;12.20;73.29;102860.38;5096161;27;45507;-70
2021/12/16 11:43:44;;;;;;;;;66.00;51.50;;;;;12.21;73.42;102859.50;5082191;27;45341;-74
2021/12/16 11:46:23;;;;;;;;;76.00;54.25;;;;;12.18;73.76;102857.75;5076952;27;45559;-73
2021/12/16 11:48:54;;;;;;;;;70.25;54.75;;;;;12.23;73.87;102858.63;5078919;27;45515;-68
2021/12/16 11:51:24;;;;;;;;;71.00;53.50;;;;;12.31;73.97;102850.59;5076020;27;45578;-66
2021/12/16 11:53:56;;;;;;;;;51.25;39.25;;;;;12.38;73.05;102856.69;5077450;27;45768;-64
2021/12/16 11:56:43;;;;;;;;;47.00;38.50;;;;;12.36;73.00;102853.19;5076125;27;45433;-69
2021/12/16 11:59:10;;;;;;;;;49.75;41.00;;;;;12.36;73.02;102853.19;5092487;27;45512;-64
2021/12/16 12:01:38;;;;;;;;;52.50;42.00;;;;;12.37;73.88;102844.38;5078653;27;45353;-63
2021/12/16 12:04:09;;;;;;;;;61.50;46.50;;;;;12.41;73.60;102846.94;5078058;27;45442;-66
2021/12/16 12:06:36;;;;;;;;;55.00;44.50;;;;;12.48;73.72;102849.53;5075590;27;46228;-65
2021/12/16 12:09:07;;;;;;;;;65.00;47.50;;;;;12.49;72.04;102853.91;5077363;27;45417;-67
2021/12/16 12:11:36;;;;;;;;;54.50;43.75;;;;;12.43;72.32;102846.94;5077601;27;45274;-67
2021/12/16 12:14:17;;;;;;;;;50.00;39.00;;;;;12.41;72.27;102851.38;5079316;27;45248;-64
2021/12/16 12:16:45;;;;;;;;;49.25;38.00;;;;;12.40;72.55;102850.47;5097533;27;47758;-64
2021/12/16 12:19:17;;;;;;;;;49.50;39.00;;;;;12.40;72.29;102841.72;5079307;28;45768;-66
2021/12/16 12:22:00;;;;;;;;;52.25;38.00;;;;;12.36;71.74;102837.34;5078082;27;45385;-68
2021/12/16 12:24:34;;;;;;;;;45.25;38.50;;;;;12.36;72.28;102842.63;5077804;27;45368;-64
2021/12/16 12:27:12;;;;;;;;;47.50;39.50;;;;;12.37;72.03;102837.31;5075825;27;46408;-63
2021/12/16 12:29:44;;;;;;;;;47.00;36.50;;;;;12.41;71.60;102831.13;5077754;28;45235;-68
2021/12/16 12:32:19;;;;;;;;;51.50;41.75;;;;;12.34;72.17;102825.94;5077412;27;45479;-67
2021/12/16 12:34:48;;;;;;;;;55.00;46.00;;;;;12.40;72.39;102831.16;5079859;27;45381;-66
2021/12/16 12:37:18;;;;;;;;;54.50;44.50;;;;;12.40;72.01;102824.09;5077966;27;46329;-68
2021/12/16 12:39:48;;;;;;;;;53.50;39.00;;;;;12.45;71.39;102825.81;5077586;27;45326;-66
2021/12/16 12:42:15;;;;;;;;;47.00;38.00;;;;;12.41;71.16;102830.25;5077981;27;45350;-69
2021/12/16 12:44:42;;;;;;;;;49.50;40.00;;;;;12.41;71.68;102828.47;5078372;27;45272;-65
2021/12/16 12:47:13;;;;;;;;;59.75;48.75;;;;;12.42;71.32;102824.94;5094322;27;48372;-68
2021/12/16 12:49:39;;;;;;;;;65.25;53.25;;;;;12.45;70.60;102828.44;5081422;27;45281;-66
2021/12/16 12:52:16;;;;;;;;;49.75;37.00;;;;;12.41;71.26;102824.97;5081507;28;45412;-65
2021/12/16 12:54:45;;;;;;;;;39.75;34.00;;;;;12.45;71.69;102820.53;5084457;27;45442;-68
2021/12/16 12:57:24;;;;;;;;;65.00;51.25;;;;;12.45;71.06;102820.53;5080044;27;45294;-69
2021/12/16 12:59:50;;;;;;;;;41.50;36.50;;;;;12.43;71.09;102820.56;5080238;27;45302;-66
2021/12/16 13:02:23;;;;;;;;;49.50;38.25;;;;;12.21;70.43;102789.16;5081873;28;45359;-71
2021/12/16 13:04:59;;;;;;;;;33.75;31.25;;;;;12.35;70.71;102818.00;5080683;27;45258;-70
2021/12/16 13:07:32;;;;;;;;;38.25;32.00;;;;;12.31;70.90;102818.06;5081670;27;46251;-69
2021/12/16 13:10:05;;;;;;;;;34.75;32.00;;;;;12.33;71.48;102816.28;5080090;27;45168;-70
2021/12/16 13:12:43;;;;;;;;;36.00;31.25;;;;;12.37;70.97;102815.34;5080740;27;45191;-69
2021/12/16 13:15:46;;;;;;;;;35.25;30.25;;;;;12.39;70.38;102817.06;5080342;27;45272;-68
2021/12/16 13:24:51;;;;;;;;;41.75;35.50;;;;;12.40;70.63;102797.69;5077372;28;45373;-65
2021/12/16 13:26:42;;;;;;;;;41.25;31.25;;;;;12.47;70.01;102808.19;5073056;27;45498;-66
2021/12/16 13:29:35;;;;;;;;;41.50;35.00;;;;;12.38;70.67;102804.75;5076787;27;47238;-64
2021/12/16 13:32:18;;;;;;;;;42.25;34.00;;;;;12.49;70.45;102809.03;5076587;27;45361;-65
2021/12/16 13:35:32;;;;;;;;;38.25;32.00;;;;;12.49;69.98;102798.47;5077230;27;45312;-67
2021/12/16 13:37:55;;;;;;;;;33.50;31.50;;;;;12.43;70.21;102799.44;5077148;27;45376;-65
2021/12/16 13:40:21;;;;;;;;;35.75;31.00;;;;;12.41;70.13;102794.16;5077748;27;48294;-65
2021/12/16 13:43:10;;;;;;;;;39.00;32.25;;;;;12.42;70.46;102797.69;5078709;27;45231;-64
2021/12/16 13:46:04;;;;;;;;;35.75;31.00;;;;;12.41;69.70;102801.22;5077281;27;45375;-69
2021/12/16 13:48:57;;;;;;;;;42.50;33.00;;;;;12.36;69.20;102793.34;5077886;27;46251;-66
2021/12/16 14:07:13;;;;;;;;;32.75;28.50;;;;;12.32;69.59;102799.56;5059869;28;45329;-71
2021/12/16 14:10:04;;;;;;;;;31.75;27.50;;;;;12.36;69.57;102798.63;5056830;28;45477;-66
2021/12/16 14:18:03;;;;;;;;;30.50;26.50;;;;;12.52;70.17;102798.44;5055777;28;45255;-68
2021/12/16 14:23:48;;;;;;;;;33.50;30.50;;;;;12.51;69.81;102794.94;5057526;28;45339;-70